createdAt,value
2024-02-04T00:02:24.958Z,33.20
2024-02-04T00:05:27.857Z,33.78
2024-02-04T00:08:30.423Z,33.80
2024-02-04T00:11:33.059Z,35.42
2024-02-04T00:14:35.607Z,33.63
2024-02-04T00:17:38.196Z,32.95
2024-02-04T00:20:40.783Z,32.15
2024-02-04T00:23:43.262Z,31.63
2024-02-04T00:26:45.892Z,33.78
2024-02-04T00:29:48.495Z,38.30
2024-02-04T00:32:51.064Z,35.88
2024-02-04T00:35:53.664Z,34.15
2024-02-04T00:38:56.187Z,50.00
2024-02-04T00:41:58.824Z,33.47
2024-02-04T00:45:01.427Z,34.08
2024-02-04T00:48:04.345Z,32.85
2024-02-04T00:51:07.888Z,45.28
2024-02-04T00:54:11.036Z,34.83
2024-02-04T00:57:13.582Z,30.67
2024-02-04T01:00:16.603Z,29.92
2024-02-04T01:03:19.589Z,30.13
2024-02-04T01:06:22.329Z,30.02
2024-02-04T01:09:24.890Z,30.17
2024-02-04T01:12:27.486Z,28.98
2024-02-04T01:15:30.060Z,29.35
2024-02-04T01:18:33.586Z,26.10
2024-02-04T01:21:36.194Z,27.60
2024-02-04T01:24:38.770Z,28.83
2024-02-04T01:27:41.546Z,29.42
2024-02-04T01:30:44.009Z,29.83
2024-02-04T01:33:47.137Z,37.33
2024-02-04T01:36:49.758Z,36.17
2024-02-04T01:39:52.320Z,36.40
2024-02-04T01:42:54.886Z,36.38
2024-02-04T01:45:57.624Z,37.78
2024-02-04T01:49:00.726Z,34.35
2024-02-04T01:52:03.885Z,32.20
2024-02-04T01:55:07.106Z,30.73
2024-02-04T01:58:09.756Z,32.90
2024-02-04T02:01:13.139Z,32.85
2024-02-04T02:04:15.899Z,27.83
2024-02-04T02:07:21.493Z,25.98
2024-02-04T02:10:25.223Z,27.83
2024-02-04T02:13:30.387Z,29.17
2024-02-04T02:16:34.131Z,27.25
2024-02-04T02:19:48.934Z,27.70
2024-02-04T02:23:01.762Z,29.33
2024-02-04T02:26:05.492Z,28.57
2024-02-04T02:29:09.829Z,38.72
2024-02-04T02:32:12.515Z,44.53
2024-02-04T02:35:18.308Z,44.38
2024-02-04T02:38:26.591Z,41.97
2024-02-04T02:41:31.217Z,36.80
2024-02-04T02:44:33.797Z,35.83
2024-02-04T02:47:37.216Z,27.90
2024-02-04T02:50:39.964Z,29.30
2024-02-04T02:53:42.494Z,36.53
2024-02-04T02:56:45.073Z,37.67
2024-02-04T02:59:47.947Z,33.30
2024-02-04T03:02:50.470Z,32.95
2024-02-04T03:05:53.284Z,34.72
2024-02-04T03:08:55.835Z,29.98
2024-02-04T03:11:58.323Z,27.07
2024-02-04T03:15:00.838Z,24.00
2024-02-04T03:18:04.142Z,22.45
2024-02-04T03:21:19.165Z,21.27
2024-02-04T03:24:21.894Z,18.70
2024-02-04T03:27:24.486Z,18.80
2024-02-04T03:30:27.124Z,18.13
2024-02-04T03:33:29.731Z,21.80
2024-02-04T03:36:33.273Z,18.60
2024-02-04T03:39:35.882Z,19.50
2024-02-04T03:42:38.542Z,20.80
2024-02-04T03:45:41.215Z,19.50
2024-02-04T03:48:44.574Z,20.00
2024-02-04T03:51:47.384Z,24.15
2024-02-04T03:54:50.153Z,20.92
2024-02-04T03:57:53.143Z,20.73
2024-02-04T04:00:56.399Z,28.02
2024-02-04T04:03:59.083Z,26.05
2024-02-04T04:07:01.992Z,24.55
2024-02-04T04:10:05.097Z,21.23
2024-02-04T04:13:08.528Z,23.27
2024-02-04T04:16:11.162Z,20.85
2024-02-04T04:19:13.863Z,21.17
2024-02-04T04:22:16.554Z,21.30
2024-02-04T04:25:19.181Z,19.88
2024-02-04T04:28:21.696Z,18.17
2024-02-04T04:31:24.142Z,22.70
2024-02-04T04:34:26.672Z,20.83
2024-02-04T04:37:29.156Z,21.23
2024-02-04T04:40:32.837Z,18.85
2024-02-04T04:43:38.227Z,21.70
2024-02-04T04:46:40.946Z,22.30
2024-02-04T04:49:43.494Z,21.77
2024-02-04T04:52:46.065Z,21.75
2024-02-04T04:55:48.590Z,21.60
2024-02-04T04:58:51.768Z,20.27
2024-02-04T05:01:54.359Z,18.77
2024-02-04T05:04:56.956Z,14.77
2024-02-04T05:07:59.634Z,13.55
2024-02-04T05:11:02.284Z,20.02
2024-02-04T05:14:04.769Z,20.57
2024-02-04T05:17:07.350Z,20.98
2024-02-04T05:20:10.531Z,22.67
2024-02-04T05:23:13.081Z,259.48
2024-02-04T05:26:18.844Z,53.25
2024-02-04T05:29:21.401Z,50.13
2024-02-04T05:32:23.983Z,35.33
2024-02-04T05:35:26.637Z,288.67
2024-02-04T05:38:29.187Z,35.65
2024-02-04T05:41:31.641Z,132.25
2024-02-04T05:44:34.193Z,82.47
2024-02-04T05:47:36.779Z,41.85
2024-02-04T05:50:39.718Z,56.47
2024-02-04T05:53:42.360Z,73.05
2024-02-04T05:56:45.216Z,72.35
2024-02-04T05:59:49.456Z,105.17
2024-02-04T06:02:51.934Z,74.65
2024-02-04T06:05:54.388Z,30.60
2024-02-04T06:08:56.903Z,28.60
2024-02-04T06:11:59.422Z,29.88
2024-02-04T06:15:02.048Z,29.30
2024-02-04T06:18:04.803Z,30.70
2024-02-04T06:21:07.850Z,34.50
2024-02-04T06:24:10.387Z,39.08
2024-02-04T06:27:12.891Z,42.10
2024-02-04T06:30:15.613Z,37.37
2024-02-04T06:33:18.159Z,42.55
2024-02-04T06:36:20.753Z,34.88
2024-02-04T06:39:23.506Z,35.53
2024-02-04T06:42:25.987Z,42.08
2024-02-04T06:45:28.489Z,137.97
2024-02-04T06:48:31.202Z,101.38
2024-02-04T06:51:33.726Z,116.05
2024-02-04T06:54:36.244Z,65.28
2024-02-04T06:57:39.084Z,90.65
2024-02-04T07:00:41.879Z,94.53
2024-02-04T07:03:44.542Z,88.20
2024-02-04T07:06:47.221Z,123.63
2024-02-04T07:09:49.799Z,60.70
2024-02-04T07:12:52.344Z,63.47
2024-02-04T07:15:56.395Z,45.37
2024-02-04T07:18:58.993Z,58.10
2024-02-04T07:22:02.066Z,47.33
2024-02-04T07:25:05.129Z,38.42
2024-02-04T07:28:07.743Z,40.38
2024-02-04T07:31:10.335Z,41.37
2024-02-04T07:34:13.128Z,36.17
2024-02-04T07:37:16.506Z,25.95
2024-02-04T07:40:19.260Z,38.30
2024-02-04T07:43:21.717Z,33.55
2024-02-04T07:46:24.388Z,36.57
2024-02-04T07:49:27.049Z,32.85
2024-02-04T07:52:29.698Z,31.95
2024-02-04T07:55:32.213Z,42.20
2024-02-04T07:58:34.709Z,44.90
2024-02-04T08:01:37.766Z,43.23
2024-02-04T08:04:43.252Z,41.80
2024-02-04T08:07:46.388Z,35.00
2024-02-04T08:10:49.093Z,25.80
2024-02-04T08:13:51.659Z,24.60
2024-02-04T08:16:54.228Z,17.80
2024-02-04T08:19:56.855Z,15.27
2024-02-04T08:22:59.592Z,13.23
2024-02-04T08:26:02.068Z,12.30
2024-02-04T08:29:04.545Z,13.32
2024-02-04T08:32:07.566Z,10.97
2024-02-04T08:35:10.309Z,7.97
2024-02-04T08:38:13.022Z,14.30
2024-02-04T08:41:15.632Z,10.07
2024-02-04T08:44:26.844Z,9.00
2024-02-04T08:47:38.114Z,10.03
2024-02-04T08:50:40.582Z,8.45
2024-02-04T08:53:43.840Z,8.20
2024-02-04T08:56:46.283Z,12.18
2024-02-04T08:59:48.963Z,10.27
2024-02-04T09:02:51.414Z,10.40
2024-02-04T09:05:53.856Z,11.88
2024-02-04T09:08:56.292Z,12.63
2024-02-04T09:11:58.837Z,15.80
2024-02-04T09:15:01.449Z,16.88
2024-02-04T09:18:04.226Z,17.13
2024-02-04T09:21:06.987Z,13.82
2024-02-04T09:24:10.259Z,14.80
2024-02-04T09:27:12.833Z,14.55
2024-02-04T09:30:15.817Z,14.63
2024-02-04T09:33:18.829Z,9.23
2024-02-04T09:36:23.832Z,8.45
2024-02-04T09:39:26.653Z,8.75
2024-02-04T09:42:30.904Z,10.40
2024-02-04T09:45:34.076Z,7.63
2024-02-04T09:48:38.041Z,6.60
2024-02-04T09:51:41.587Z,7.72
2024-02-04T09:54:48.577Z,8.50
2024-02-04T09:57:51.178Z,4.60
2024-02-04T10:00:55.268Z,4.47
2024-02-04T10:03:58.460Z,4.43
2024-02-04T10:07:02.189Z,4.00
2024-02-04T10:10:06.559Z,4.70
2024-02-04T10:13:10.291Z,5.22
2024-02-04T10:16:13.930Z,5.70
2024-02-04T10:19:17.030Z,2.13
2024-02-04T10:22:20.021Z,4.60
2024-02-04T10:25:24.172Z,14.50
2024-02-04T10:28:29.717Z,3.00
2024-02-04T10:31:32.657Z,2.00
2024-02-04T10:34:40.438Z,1.97
2024-02-04T10:37:43.576Z,0.63
2024-02-04T10:40:46.892Z,2.70
2024-02-04T10:43:50.176Z,0.60
2024-02-04T10:46:53.925Z,0.30
2024-02-04T10:50:00.032Z,4.07
2024-02-04T10:53:10.640Z,2.30
2024-02-04T10:56:39.020Z,2.08
2024-02-04T10:59:41.934Z,1.23
2024-02-04T11:02:47.574Z,1.10
2024-02-04T11:05:51.161Z,1.57
2024-02-04T11:08:56.668Z,1.30
2024-02-04T11:12:00.956Z,1.55
2024-02-04T11:15:09.705Z,1.60
2024-02-04T11:18:32.153Z,1.70
2024-02-04T11:21:49.436Z,3.60
2024-02-04T11:25:21.174Z,3.97
2024-02-04T11:28:24.130Z,3.92
2024-02-04T11:31:29.896Z,1.75
2024-02-04T11:34:32.785Z,2.90
2024-02-04T11:37:35.486Z,2.80
2024-02-04T11:40:41.329Z,2.15
2024-02-04T11:43:46.815Z,1.90
2024-02-04T11:46:49.894Z,2.40
2024-02-04T11:49:59.882Z,3.10
2024-02-04T11:53:07.177Z,1.20
2024-02-04T11:56:10.520Z,1.10
2024-02-04T11:59:15.169Z,1.48
2024-02-04T12:02:18.602Z,1.17
2024-02-04T12:05:21.356Z,2.03
2024-02-04T12:08:24.700Z,1.60
2024-02-04T12:11:28.676Z,0.20
2024-02-04T12:14:31.988Z,0.80
2024-02-04T12:17:34.528Z,1.05
2024-02-04T12:20:37.922Z,2.65
2024-02-04T12:23:40.490Z,3.17
2024-02-04T12:26:43.706Z,0.77
2024-02-04T12:29:46.266Z,0.90
2024-02-04T12:33:03.249Z,1.63
2024-02-04T12:36:06.136Z,1.65
2024-02-04T12:39:13.315Z,1.77
2024-02-04T12:42:20.024Z,0.30
2024-02-04T12:45:23.828Z,1.42
2024-02-04T12:48:29.010Z,1.52
2024-02-04T12:51:34.680Z,1.80
2024-02-04T12:54:46.992Z,2.90
2024-02-04T12:57:50.268Z,4.25
2024-02-04T13:01:01.930Z,1.70
2024-02-04T13:04:04.962Z,0.85
2024-02-04T13:07:12.478Z,1.75
2024-02-04T13:10:15.899Z,2.47
2024-02-04T13:13:18.509Z,0.70
2024-02-04T13:16:23.281Z,1.38
2024-02-04T13:19:25.888Z,0.80
2024-02-04T13:22:28.855Z,2.30
2024-02-04T13:25:31.775Z,2.00
2024-02-04T13:28:34.796Z,1.23
2024-02-04T13:31:37.394Z,1.13
2024-02-04T13:34:40.163Z,1.05
2024-02-04T13:37:52.955Z,1.13
2024-02-04T13:40:55.571Z,1.50
2024-02-04T13:43:58.158Z,4.22
2024-02-04T13:47:00.752Z,3.08
2024-02-04T13:50:04.640Z,2.15
2024-02-04T13:53:07.622Z,4.80
2024-02-04T13:56:10.218Z,4.13
2024-02-04T13:59:12.705Z,6.10
2024-02-04T14:02:15.387Z,2.85
2024-02-04T14:05:17.956Z,3.28
2024-02-04T14:08:20.567Z,2.53
2024-02-04T14:11:23.263Z,4.57
2024-02-04T14:14:25.860Z,3.50
2024-02-04T14:17:28.464Z,1.13
2024-02-04T14:20:31.815Z,24.23
2024-02-04T14:23:34.344Z,22.83
2024-02-04T14:26:36.881Z,39.37
2024-02-04T14:29:39.453Z,16.15
2024-02-04T14:32:42.402Z,20.90
2024-02-04T14:35:44.986Z,20.02
2024-02-04T14:38:47.572Z,9.68
2024-02-04T14:41:50.097Z,3.80
2024-02-04T14:44:52.878Z,1.70
2024-02-04T14:47:55.523Z,2.70
2024-02-04T14:51:01.665Z,2.65
2024-02-04T14:54:04.651Z,2.22
2024-02-04T14:57:07.496Z,5.60
2024-02-04T15:00:11.531Z,4.82
2024-02-04T15:03:14.121Z,4.50
2024-02-04T15:06:17.576Z,3.72
2024-02-04T15:09:20.466Z,1.92
2024-02-04T15:12:23.168Z,2.00
2024-02-04T15:15:26.216Z,1.98
2024-02-04T15:18:29.364Z,4.95
2024-02-04T15:21:32.274Z,1.00
2024-02-04T15:24:35.462Z,3.63
2024-02-04T15:27:38.680Z,4.27
2024-02-04T15:30:42.068Z,4.70
2024-02-04T15:33:45.479Z,2.50
2024-02-04T15:36:49.021Z,4.70
2024-02-04T15:39:52.740Z,4.60
2024-02-04T15:42:55.591Z,6.17
2024-02-04T15:45:59.164Z,5.57
2024-02-04T15:49:03.190Z,3.38
2024-02-04T15:52:07.572Z,1.70
2024-02-04T15:55:10.760Z,1.38
2024-02-04T15:58:13.571Z,1.67
2024-02-04T16:01:17.026Z,2.40
2024-02-04T16:04:20.393Z,2.45
2024-02-04T16:07:23.481Z,3.60
2024-02-04T16:10:27.786Z,5.22
2024-02-04T16:13:32.785Z,3.50
2024-02-04T16:16:38.634Z,4.40
2024-02-04T16:19:43.783Z,3.17
2024-02-04T16:22:50.589Z,3.30
2024-02-04T16:25:53.486Z,1.75
2024-02-04T16:28:56.208Z,2.03
2024-02-04T16:31:58.691Z,2.13
2024-02-04T16:35:01.590Z,1.88
2024-02-04T16:38:04.758Z,0.50
2024-02-04T16:41:08.696Z,4.60
2024-02-04T16:44:14.863Z,3.40
2024-02-04T16:47:17.473Z,1.77
2024-02-04T16:50:20.147Z,1.27
2024-02-04T16:53:22.773Z,0.88
2024-02-04T16:56:25.685Z,0.85
2024-02-04T16:59:28.764Z,2.07
2024-02-04T17:02:31.960Z,1.60
2024-02-04T17:05:45.615Z,1.15
2024-02-04T17:08:58.169Z,1.42
2024-02-04T17:12:01.238Z,1.50
2024-02-04T17:15:04.463Z,1.20
2024-02-04T17:18:09.870Z,0.93
2024-02-04T17:21:13.453Z,0.88
2024-02-04T17:24:19.565Z,0.70
2024-02-04T17:27:22.522Z,0.50
2024-02-04T17:30:25.401Z,0.70
2024-02-04T17:33:28.264Z,1.10
2024-02-04T17:36:31.093Z,1.20
2024-02-04T17:39:33.970Z,0.93
2024-02-04T17:42:37.927Z,0.70
2024-02-04T17:45:40.815Z,0.77
2024-02-04T17:48:44.332Z,0.85
2024-02-04T17:51:47.372Z,1.17
2024-02-04T17:54:52.631Z,1.35
2024-02-04T17:57:59.024Z,0.95
2024-02-04T18:01:02.059Z,1.00
2024-02-04T18:04:05.425Z,1.02
2024-02-04T18:07:09.882Z,1.48
2024-02-04T18:10:12.819Z,1.58
2024-02-04T18:13:16.781Z,1.13
2024-02-04T18:16:19.723Z,0.97
2024-02-04T18:19:22.779Z,0.77
2024-02-04T18:22:25.783Z,1.23
2024-02-04T18:25:28.623Z,0.90
2024-02-04T18:28:32.023Z,1.40
2024-02-04T18:31:34.899Z,1.23
2024-02-04T18:34:37.801Z,0.88
2024-02-04T18:37:41.200Z,0.88
2024-02-04T18:40:43.982Z,0.95
2024-02-04T18:43:50.617Z,1.08
2024-02-04T18:46:53.639Z,0.50
2024-02-04T18:49:56.422Z,0.57
2024-02-04T18:52:59.421Z,0.65
2024-02-04T18:56:13.347Z,0.82
2024-02-04T18:59:17.502Z,0.80
2024-02-04T19:02:19.976Z,0.80
2024-02-04T19:05:22.622Z,0.75
2024-02-04T19:08:27.281Z,0.80
2024-02-04T19:11:29.840Z,0.40
2024-02-04T19:14:32.784Z,0.73
2024-02-04T19:17:40.923Z,0.87
2024-02-04T19:20:44.165Z,0.73
2024-02-04T19:23:47.033Z,0.70
2024-02-04T19:26:50.479Z,0.80
2024-02-04T19:29:53.289Z,0.95
2024-02-04T19:32:56.395Z,0.40
2024-02-04T19:35:59.305Z,0.25
2024-02-04T19:39:02.112Z,0.55
2024-02-04T19:42:05.252Z,0.50
2024-02-04T19:45:08.153Z,0.50
2024-02-04T19:48:12.934Z,1.00
2024-02-04T19:51:15.661Z,0.77
2024-02-04T19:54:18.429Z,0.82
2024-02-04T19:57:21.223Z,1.27
2024-02-04T20:00:24.032Z,1.15
2024-02-04T20:03:26.820Z,0.60
2024-02-04T20:06:31.141Z,0.77
2024-02-04T20:09:34.366Z,0.60
2024-02-04T20:12:37.186Z,0.30
2024-02-04T20:15:40.022Z,0.20
2024-02-04T20:18:42.865Z,0.50
2024-02-04T20:21:45.831Z,0.30
2024-02-04T20:24:48.444Z,0.38
2024-02-04T20:27:51.804Z,0.70
2024-02-04T20:30:54.417Z,0.20
2024-02-04T20:33:57.260Z,0.77
2024-02-04T20:36:59.811Z,0.73
2024-02-04T20:40:02.789Z,1.02
2024-02-04T20:43:06.047Z,0.30
2024-02-04T20:46:09.045Z,0.38
2024-02-04T20:49:12.160Z,0.60
2024-02-04T20:52:15.928Z,0.75
2024-02-04T20:55:18.881Z,0.50
2024-02-04T20:58:21.824Z,0.65
2024-02-04T21:01:27.914Z,1.45
2024-02-04T21:04:30.741Z,0.30
2024-02-04T21:07:33.834Z,0.45
2024-02-04T21:10:39.506Z,0.50
2024-02-04T21:13:42.317Z,0.45
2024-02-04T21:16:44.840Z,0.22
2024-02-04T21:19:48.009Z,0.60
2024-02-04T21:22:50.850Z,0.32
2024-02-04T21:25:53.718Z,0.17
2024-02-04T21:28:58.076Z,0.30
2024-02-04T21:32:00.620Z,0.45
2024-02-04T21:35:06.424Z,0.00
2024-02-04T21:38:11.154Z,0.50
2024-02-04T21:41:20.481Z,0.20
2024-02-04T21:44:23.678Z,0.20
2024-02-04T21:47:26.232Z,0.47
2024-02-04T21:50:28.800Z,0.53
2024-02-04T21:53:32.105Z,0.10
2024-02-04T21:56:34.706Z,0.17
2024-02-04T21:59:37.687Z,0.03
2024-02-04T22:02:40.203Z,0.50
2024-02-04T22:05:42.706Z,0.17
2024-02-04T22:08:45.658Z,0.30
2024-02-04T22:11:48.876Z,0.22
2024-02-04T22:14:51.406Z,0.10
2024-02-04T22:17:55.487Z,0.10
2024-02-04T22:20:59.098Z,0.30
2024-02-04T22:24:03.560Z,0.20
2024-02-04T22:27:06.058Z,0.08
2024-02-04T22:30:09.280Z,0.00
2024-02-04T22:33:11.984Z,0.22
2024-02-04T22:36:14.547Z,0.13
2024-02-04T22:39:17.119Z,0.30
2024-02-04T22:42:19.818Z,0.08
2024-02-04T22:45:22.462Z,0.17
2024-02-04T22:48:24.964Z,0.32
2024-02-04T22:51:28.125Z,0.10
2024-02-04T22:54:30.645Z,0.10
2024-02-04T22:57:33.170Z,0.20
2024-02-04T23:00:35.691Z,0.20
2024-02-04T23:03:38.411Z,0.10
2024-02-04T23:06:41.081Z,0.20
2024-02-04T23:09:44.208Z,0.40
2024-02-04T23:12:47.161Z,0.30
2024-02-04T23:15:50.073Z,0.55
2024-02-04T23:18:52.631Z,1.08
2024-02-04T23:21:55.199Z,0.43
2024-02-04T23:24:57.886Z,0.25
2024-02-04T23:28:00.481Z,0.20
2024-02-04T23:31:03.170Z,1.10
2024-02-04T23:34:05.734Z,0.40
2024-02-04T23:37:09.646Z,0.60
2024-02-04T23:40:13.145Z,0.52
2024-02-04T23:43:15.691Z,0.40
2024-02-04T23:46:18.497Z,0.10
2024-02-04T23:49:21.221Z,0.17
2024-02-04T23:52:25.514Z,0.00
2024-02-04T23:55:28.169Z,0.03
2024-02-04T23:58:30.614Z,0.10
